»·PEaware :: N1399 KBFI-KAWO

N1399 :: KBFI-KAWO

FLIGHT INFORMATION

Flight Status: Arrived
Operator: Privately registered:
United States
More flights under this callsign
Pilot: David C. (16084)
Aircraft: BEECH AIRCRAFT BARON
(BE58)
More flights by this aircraft type
Origin: KBFI Boeing Field/King Co Intl
United States
Destination: KAWO Arlington Mun
United States
More flights between these airports :: More routes between these airports
Route: +PAE
File this flight plan on PilotEdge
Remarks:
Altitude:
(Current/Filed)
5,500ft
Speed:
(Current/Filed)
249kts
Departed: 09-Apr-18 09:21 AM
Arrived: 09-Apr-18 09:43 AM
Distance/Time
Traveled:
38nm/0:22
Distance/Time
To Go:
Arrived

Flight Plot

Page will automatically refresh every two minutes.

Flight plan parsing failed; only flown route is shown


Map Options




Map Legend


Flown Route
Filed Route
Departure Airport
Arrival Airport
Navaid (VOR, NDB)
Fix

Horizontal Profiles

Position Reports

Time Latitude Longitude Heading Altitude Ground
Speed
09-Apr-18 08:57 47.525885 -122.301292 154 21ft 0kts
09-Apr-18 08:58 47.525885 -122.301292 154 21ft 0kts
09-Apr-18 08:59 47.525885 -122.301292 154 21ft 0kts
09-Apr-18 09:00 47.525885 -122.301292 154 21ft 0kts
09-Apr-18 09:01 47.525885 -122.301292 154 21ft 0kts
09-Apr-18 09:02 47.525885 -122.301292 154 21ft 0kts
09-Apr-18 09:03 47.525885 -122.301292 154 21ft 0kts
09-Apr-18 09:04 47.525885 -122.301292 154 21ft 0kts
09-Apr-18 09:05 47.525885 -122.301292 154 21ft 0kts
09-Apr-18 09:06 47.525885 -122.301292 154 21ft 0kts
09-Apr-18 09:07 47.525885 -122.301292 154 21ft 0kts
09-Apr-18 09:08 47.525885 -122.301292 154 21ft 0kts
09-Apr-18 09:09 47.525885 -122.301292 154 21ft 0kts
09-Apr-18 09:10 47.525885 -122.301292 154 21ft 0kts
09-Apr-18 09:11 47.525885 -122.301292 154 21ft 0kts
09-Apr-18 09:12 47.525885 -122.301292 154 21ft 0kts
09-Apr-18 09:13 47.526543 -122.301542 52 21ft 12kts
09-Apr-18 09:14 47.530156 -122.304087 330 21ft 20kts
09-Apr-18 09:15 47.535471 -122.308576 331 21ft 23kts
09-Apr-18 09:16 47.539602 -122.312058 333 21ft 0kts
09-Apr-18 09:17 47.539602 -122.312058 333 21ft 0kts
09-Apr-18 09:18 47.539602 -122.312058 333 21ft 0kts
09-Apr-18 09:19 47.539379 -122.310423 150 21ft 31kts
09-Apr-18 09:20 47.513186 -122.289587 177 691ft 135kts
09-Apr-18 09:21 47.523973 -122.322401 336 959ft 157kts
09-Apr-18 09:22 47.563384 -122.347734 336 1522ft 140kts
09-Apr-18 09:23 47.606272 -122.357229 356 1474ft 165kts
09-Apr-18 09:24 47.650033 -122.361554 356 2106ft 144kts
09-Apr-18 09:25 47.689653 -122.365443 356 2698ft 156kts
09-Apr-18 09:26 47.735184 -122.370252 356 2673ft 169kts
09-Apr-18 09:27 47.781997 -122.376082 356 2672ft 172kts
09-Apr-18 09:28 47.827202 -122.363742 30 2850ft 161kts
09-Apr-18 09:29 47.864674 -122.338744 21 3900ft 139kts
09-Apr-18 09:30 47.900111 -122.318255 23 5097ft 143kts
09-Apr-18 09:31 47.943108 -122.292109 23 5429ft 192kts
09-Apr-18 09:32 47.994896 -122.260546 23 5422ft 207kts
09-Apr-18 09:33 48.046809 -122.228803 22 5486ft 181kts
09-Apr-18 09:34 48.089331 -122.202848 22 3788ft 158kts
09-Apr-18 09:35 48.125303 -122.178944 43 2592ft 130kts
09-Apr-18 09:36 48.152722 -122.146686 12 1839ft 125kts
09-Apr-18 09:37 48.189161 -122.143950 0 1894ft 139kts
09-Apr-18 09:38 48.214820 -122.115796 110 1879ft 142kts
09-Apr-18 09:39 48.181258 -122.100065 124 1910ft 141kts
09-Apr-18 09:40 48.201554 -122.090316 292 1344ft 110kts
09-Apr-18 09:41 48.204150 -122.129383 269 236ft 90kts
09-Apr-18 09:42 48.204208 -122.145171 89 1ft 20kts
09-Apr-18 09:43 48.204072 -122.139654 105 1ft 6kts
09-Apr-18 09:44 48.204212 -122.139571 267 1ft 0kts
09-Apr-18 09:45 48.195004 -122.150380 87 1142ft 117kts
09-Apr-18 09:46 48.186467 -122.099178 98 1932ft 142kts
09-Apr-18 09:47 48.205118 -122.126861 276 747ft 178kts
09-Apr-18 09:48 48.188723 -122.145840 103 945ft 136kts
09-Apr-18 09:49 48.186489 -122.099294 27 1260ft 123kts
09-Apr-18 09:50 48.204165 -122.126919 270 362ft 95kts
09-Apr-18 09:51 48.204218 -122.142846 91 1ft 77kts
09-Apr-18 09:52 48.191786 -122.114511 181 1137ft 126kts
09-Apr-18 09:53 48.157654 -122.113489 180 1902ft 104kts
09-Apr-18 09:54 48.127477 -122.114167 180 1902ft 141kts
09-Apr-18 09:55 48.113131 -122.151925 308 1305ft 125kts
09-Apr-18 09:56 48.141625 -122.155891 358 408ft 91kts
09-Apr-18 09:57 48.164146 -122.156348 18 142ft 19kts

Navigation Log

Ident Type
Flight plan parsing failed, navigation log unavailable